sensor_id;sensor_type;location;lat;lon;timestamp;temperature;humidity
12039;DHT22;6080;48.818;9.526;2022-10-15T00:01:14;14.30;99.90
12039;DHT22;6080;48.818;9.526;2022-10-15T00:03:42;14.30;99.90
12039;DHT22;6080;48.818;9.526;2022-10-15T00:06:14;14.30;99.90
12039;DHT22;6080;48.818;9.526;2022-10-15T00:08:40;14.30;99.90
12039;DHT22;6080;48.818;9.526;2022-10-15T00:11:15;14.30;99.90
12039;DHT22;6080;48.818;9.526;2022-10-15T00:13:42;14.30;99.90
12039;DHT22;6080;48.818;9.526;2022-10-15T00:16:11;14.30;99.90
12039;DHT22;6080;48.818;9.526;2022-10-15T00:18:38;14.30;99.90
12039;DHT22;6080;48.818;9.526;2022-10-15T00:21:06;14.30;99.90
12039;DHT22;6080;48.818;9.526;2022-10-15T00:23:32;14.40;99.90
12039;DHT22;6080;48.818;9.526;2022-10-15T00:26:13;14.30;99.90
12039;DHT22;6080;48.818;9.526;2022-10-15T00:28:39;14.30;99.90
12039;DHT22;6080;48.818;9.526;2022-10-15T00:31:09;14.30;99.90
12039;DHT22;6080;48.818;9.526;2022-10-15T00:33:35;14.40;99.90
12039;DHT22;6080;48.818;9.526;2022-10-15T00:38:29;14.40;99.90
12039;DHT22;6080;48.818;9.526;2022-10-15T00:40:56;14.40;99.90
12039;DHT22;6080;48.818;9.526;2022-10-15T00:48:48;14.40;99.90
12039;DHT22;6080;48.818;9.526;2022-10-15T00:51:16;14.40;99.90
12039;DHT22;6080;48.818;9.526;2022-10-15T00:53:42;14.40;99.90
12039;DHT22;6080;48.818;9.526;2022-10-15T00:56:08;14.40;99.90
12039;DHT22;6080;48.818;9.526;2022-10-15T00:58:35;14.40;99.90
12039;DHT22;6080;48.818;9.526;2022-10-15T01:01:01;14.40;99.90
12039;DHT22;6080;48.818;9.526;2022-10-15T01:03:26;14.40;99.90
12039;DHT22;6080;48.818;9.526;2022-10-15T01:05:52;14.40;99.90
12039;DHT22;6080;48.818;9.526;2022-10-15T01:08:19;14.40;99.90
12039;DHT22;6080;48.818;9.526;2022-10-15T01:14:01;14.40;99.90
12039;DHT22;6080;48.818;9.526;2022-10-15T01:16:45;14.50;99.90
12039;DHT22;6080;48.818;9.526;2022-10-15T01:27:33;14.50;99.90
12039;DHT22;6080;48.818;9.526;2022-10-15T01:30:20;14.50;99.90
12039;DHT22;6080;48.818;9.526;2022-10-15T01:33:15;14.50;99.90
12039;DHT22;6080;48.818;9.526;2022-10-15T01:38:29;14.50;99.90
12039;DHT22;6080;48.818;9.526;2022-10-15T01:40:59;14.50;99.90
12039;DHT22;6080;48.818;9.526;2022-10-15T01:43:45;14.50;99.90
12039;DHT22;6080;48.818;9.526;2022-10-15T01:46:23;14.50;99.90
12039;DHT22;6080;48.818;9.526;2022-10-15T01:48:51;14.50;99.90
12039;DHT22;6080;48.818;9.526;2022-10-15T01:51:19;14.50;99.90
12039;DHT22;6080;48.818;9.526;2022-10-15T01:53:48;14.50;99.90
12039;DHT22;6080;48.818;9.526;2022-10-15T01:56:19;14.50;99.90
12039;DHT22;6080;48.818;9.526;2022-10-15T01:58:48;14.60;99.90
12039;DHT22;6080;48.818;9.526;2022-10-15T02:01:15;14.60;99.90
12039;DHT22;6080;48.818;9.526;2022-10-15T02:03:49;14.60;99.90
12039;DHT22;6080;48.818;9.526;2022-10-15T02:06:26;14.70;99.90
12039;DHT22;6080;48.818;9.526;2022-10-15T02:11:30;14.70;99.90
12039;DHT22;6080;48.818;9.526;2022-10-15T02:14:09;14.70;99.90
12039;DHT22;6080;48.818;9.526;2022-10-15T02:16:43;14.70;99.90
12039;DHT22;6080;48.818;9.526;2022-10-15T02:20:19;14.70;99.90
12039;DHT22;6080;48.818;9.526;2022-10-15T02:22:21;14.80;99.90
12039;DHT22;6080;48.818;9.526;2022-10-15T02:24:58;14.80;99.90
12039;DHT22;6080;48.818;9.526;2022-10-15T02:27:27;14.80;99.90
12039;DHT22;6080;48.818;9.526;2022-10-15T02:29:55;14.80;99.90
12039;DHT22;6080;48.818;9.526;2022-10-15T02:32:24;14.80;99.90
12039;DHT22;6080;48.818;9.526;2022-10-15T02:34:51;14.80;99.90
12039;DHT22;6080;48.818;9.526;2022-10-15T02:37:25;14.80;99.90
12039;DHT22;6080;48.818;9.526;2022-10-15T02:39:51;14.80;99.90
12039;DHT22;6080;48.818;9.526;2022-10-15T02:42:18;14.90;99.90
12039;DHT22;6080;48.818;9.526;2022-10-15T02:44:44;14.90;99.90
12039;DHT22;6080;48.818;9.526;2022-10-15T02:47:10;14.90;99.90
12039;DHT22;6080;48.818;9.526;2022-10-15T02:49:36;14.90;99.90
12039;DHT22;6080;48.818;9.526;2022-10-15T02:52:03;14.90;99.90
12039;DHT22;6080;48.818;9.526;2022-10-15T02:54:29;14.90;99.90
12039;DHT22;6080;48.818;9.526;2022-10-15T02:56:54;14.90;99.90
12039;DHT22;6080;48.818;9.526;2022-10-15T02:59:20;14.90;99.90
12039;DHT22;6080;48.818;9.526;2022-10-15T03:01:46;14.90;99.90
12039;DHT22;6080;48.818;9.526;2022-10-15T03:04:12;14.90;99.90
12039;DHT22;6080;48.818;9.526;2022-10-15T03:06:38;14.90;99.90
12039;DHT22;6080;48.818;9.526;2022-10-15T03:09:04;14.90;99.90
12039;DHT22;6080;48.818;9.526;2022-10-15T03:11:30;14.90;99.90
12039;DHT22;6080;48.818;9.526;2022-10-15T03:13:55;14.90;99.90
12039;DHT22;6080;48.818;9.526;2022-10-15T03:16:21;14.90;99.90
12039;DHT22;6080;48.818;9.526;2022-10-15T03:18:47;14.90;99.90
12039;DHT22;6080;48.818;9.526;2022-10-15T03:21:13;15.00;99.90
12039;DHT22;6080;48.818;9.526;2022-10-15T03:23:38;15.00;99.90
12039;DHT22;6080;48.818;9.526;2022-10-15T03:26:04;15.00;99.90
12039;DHT22;6080;48.818;9.526;2022-10-15T03:28:30;15.00;99.90
12039;DHT22;6080;48.818;9.526;2022-10-15T03:30:56;15.00;99.90
12039;DHT22;6080;48.818;9.526;2022-10-15T03:33:22;15.00;99.90
12039;DHT22;6080;48.818;9.526;2022-10-15T03:35:48;15.00;99.90
12039;DHT22;6080;48.818;9.526;2022-10-15T03:38:13;15.00;99.90
12039;DHT22;6080;48.818;9.526;2022-10-15T03:40:39;15.00;99.90
12039;DHT22;6080;48.818;9.526;2022-10-15T03:43:05;15.10;99.90
12039;DHT22;6080;48.818;9.526;2022-10-15T03:45:31;15.10;99.90
12039;DHT22;6080;48.818;9.526;2022-10-15T03:47:57;15.00;99.90
12039;DHT22;6080;48.818;9.526;2022-10-15T03:50:22;15.10;99.90
12039;DHT22;6080;48.818;9.526;2022-10-15T03:52:48;15.10;99.90
12039;DHT22;6080;48.818;9.526;2022-10-15T03:55:14;15.10;99.90
12039;DHT22;6080;48.818;9.526;2022-10-15T03:57:40;15.10;99.90
12039;DHT22;6080;48.818;9.526;2022-10-15T04:00:07;15.10;99.90
12039;DHT22;6080;48.818;9.526;2022-10-15T04:02:33;15.10;99.90
12039;DHT22;6080;48.818;9.526;2022-10-15T04:04:59;15.10;99.90
12039;DHT22;6080;48.818;9.526;2022-10-15T04:07:25;15.10;99.90
12039;DHT22;6080;48.818;9.526;2022-10-15T04:09:51;15.10;99.90
12039;DHT22;6080;48.818;9.526;2022-10-15T04:12:17;15.20;99.90
12039;DHT22;6080;48.818;9.526;2022-10-15T04:14:44;15.20;99.90
12039;DHT22;6080;48.818;9.526;2022-10-15T04:17:10;15.20;99.90
12039;DHT22;6080;48.818;9.526;2022-10-15T04:19:36;15.20;99.90
12039;DHT22;6080;48.818;9.526;2022-10-15T04:22:02;15.20;99.90
12039;DHT22;6080;48.818;9.526;2022-10-15T04:24:27;15.20;99.90
12039;DHT22;6080;48.818;9.526;2022-10-15T04:26:53;15.30;99.90
12039;DHT22;6080;48.818;9.526;2022-10-15T04:29:19;15.30;99.90
12039;DHT22;6080;48.818;9.526;2022-10-15T04:31:45;15.30;99.90
12039;DHT22;6080;48.818;9.526;2022-10-15T04:34:10;15.30;99.90
12039;DHT22;6080;48.818;9.526;2022-10-15T04:36:36;15.20;99.90
12039;DHT22;6080;48.818;9.526;2022-10-15T04:39:03;15.20;99.90
12039;DHT22;6080;48.818;9.526;2022-10-15T04:41:28;15.30;99.90
12039;DHT22;6080;48.818;9.526;2022-10-15T04:43:56;15.30;99.90
12039;DHT22;6080;48.818;9.526;2022-10-15T04:46:22;15.30;99.90
12039;DHT22;6080;48.818;9.526;2022-10-15T04:48:48;15.30;99.90
12039;DHT22;6080;48.818;9.526;2022-10-15T04:51:16;15.30;99.90
12039;DHT22;6080;48.818;9.526;2022-10-15T04:53:43;15.30;99.90
12039;DHT22;6080;48.818;9.526;2022-10-15T04:56:14;15.30;99.90
12039;DHT22;6080;48.818;9.526;2022-10-15T04:58:43;15.30;99.90
12039;DHT22;6080;48.818;9.526;2022-10-15T05:01:12;15.30;99.90
12039;DHT22;6080;48.818;9.526;2022-10-15T05:03:40;15.30;99.90
12039;DHT22;6080;48.818;9.526;2022-10-15T05:06:09;15.30;99.90
12039;DHT22;6080;48.818;9.526;2022-10-15T05:08:35;15.30;99.90
12039;DHT22;6080;48.818;9.526;2022-10-15T05:11:04;15.30;99.90
12039;DHT22;6080;48.818;9.526;2022-10-15T05:13:31;15.30;99.90
12039;DHT22;6080;48.818;9.526;2022-10-15T05:15:57;15.30;99.90
12039;DHT22;6080;48.818;9.526;2022-10-15T05:18:32;15.30;99.90
12039;DHT22;6080;48.818;9.526;2022-10-15T05:21:00;15.30;99.90
12039;DHT22;6080;48.818;9.526;2022-10-15T05:23:26;15.30;99.90
12039;DHT22;6080;48.818;9.526;2022-10-15T05:25:52;15.30;99.90
12039;DHT22;6080;48.818;9.526;2022-10-15T05:28:18;15.30;99.90
12039;DHT22;6080;48.818;9.526;2022-10-15T05:30:44;15.30;99.90
12039;DHT22;6080;48.818;9.526;2022-10-15T05:33:10;15.30;99.90
12039;DHT22;6080;48.818;9.526;2022-10-15T05:35:36;15.30;99.90
12039;DHT22;6080;48.818;9.526;2022-10-15T05:38:02;15.30;99.90
12039;DHT22;6080;48.818;9.526;2022-10-15T05:40:29;15.30;99.90
12039;DHT22;6080;48.818;9.526;2022-10-15T05:42:55;15.30;99.90
12039;DHT22;6080;48.818;9.526;2022-10-15T05:45:21;15.30;99.90
12039;DHT22;6080;48.818;9.526;2022-10-15T05:47:47;15.30;99.90
12039;DHT22;6080;48.818;9.526;2022-10-15T05:50:13;15.30;99.90
12039;DHT22;6080;48.818;9.526;2022-10-15T05:52:39;15.30;99.90
12039;DHT22;6080;48.818;9.526;2022-10-15T05:55:05;15.30;99.90
12039;DHT22;6080;48.818;9.526;2022-10-15T05:57:31;15.30;99.90
12039;DHT22;6080;48.818;9.526;2022-10-15T05:59:56;15.30;99.90
12039;DHT22;6080;48.818;9.526;2022-10-15T06:02:22;15.30;99.90
12039;DHT22;6080;48.818;9.526;2022-10-15T06:04:48;15.30;99.90
12039;DHT22;6080;48.818;9.526;2022-10-15T06:07:14;15.30;99.90
12039;DHT22;6080;48.818;9.526;2022-10-15T06:09:40;15.30;99.90
12039;DHT22;6080;48.818;9.526;2022-10-15T06:12:06;15.30;99.90
12039;DHT22;6080;48.818;9.526;2022-10-15T06:14:31;15.30;99.90
12039;DHT22;6080;48.818;9.526;2022-10-15T06:16:57;15.30;99.90
12039;DHT22;6080;48.818;9.526;2022-10-15T06:19:23;15.30;99.90
12039;DHT22;6080;48.818;9.526;2022-10-15T06:21:48;15.30;99.90
12039;DHT22;6080;48.818;9.526;2022-10-15T06:24:15;15.30;99.90
12039;DHT22;6080;48.818;9.526;2022-10-15T06:26:41;15.30;99.90
12039;DHT22;6080;48.818;9.526;2022-10-15T06:29:06;15.30;99.90
12039;DHT22;6080;48.818;9.526;2022-10-15T06:31:32;15.30;99.90
12039;DHT22;6080;48.818;9.526;2022-10-15T06:33:58;15.30;99.90
12039;DHT22;6080;48.818;9.526;2022-10-15T06:36:24;15.30;99.90
12039;DHT22;6080;48.818;9.526;2022-10-15T06:38:50;15.30;99.90
12039;DHT22;6080;48.818;9.526;2022-10-15T06:41:16;15.30;99.90
12039;DHT22;6080;48.818;9.526;2022-10-15T06:43:42;15.30;99.90
12039;DHT22;6080;48.818;9.526;2022-10-15T06:46:09;15.30;99.90
12039;DHT22;6080;48.818;9.526;2022-10-15T06:48:35;15.30;99.90
12039;DHT22;6080;48.818;9.526;2022-10-15T06:51:01;15.30;99.90
12039;DHT22;6080;48.818;9.526;2022-10-15T06:53:28;15.30;99.90
12039;DHT22;6080;48.818;9.526;2022-10-15T06:55:58;15.30;99.90
12039;DHT22;6080;48.818;9.526;2022-10-15T06:58:24;15.40;99.90
12039;DHT22;6080;48.818;9.526;2022-10-15T07:00:50;15.40;99.90
12039;DHT22;6080;48.818;9.526;2022-10-15T07:03:16;15.40;99.90
12039;DHT22;6080;48.818;9.526;2022-10-15T07:05:42;15.40;99.90
12039;DHT22;6080;48.818;9.526;2022-10-15T07:08:07;15.40;99.90
12039;DHT22;6080;48.818;9.526;2022-10-15T07:10:33;15.40;99.90
12039;DHT22;6080;48.818;9.526;2022-10-15T07:13:00;15.50;99.90
12039;DHT22;6080;48.818;9.526;2022-10-15T07:15:26;15.50;99.90
12039;DHT22;6080;48.818;9.526;2022-10-15T07:17:54;15.50;99.90
12039;DHT22;6080;48.818;9.526;2022-10-15T07:20:21;15.60;99.90
12039;DHT22;6080;48.818;9.526;2022-10-15T07:22:47;15.60;99.90
12039;DHT22;6080;48.818;9.526;2022-10-15T07:25:13;15.60;99.90
12039;DHT22;6080;48.818;9.526;2022-10-15T07:27:39;15.60;99.90
12039;DHT22;6080;48.818;9.526;2022-10-15T07:30:07;15.70;99.90
12039;DHT22;6080;48.818;9.526;2022-10-15T07:32:33;15.70;99.90
12039;DHT22;6080;48.818;9.526;2022-10-15T07:34:59;15.70;99.90
12039;DHT22;6080;48.818;9.526;2022-10-15T07:37:25;15.70;99.90
12039;DHT22;6080;48.818;9.526;2022-10-15T07:39:50;15.70;99.90
12039;DHT22;6080;48.818;9.526;2022-10-15T07:42:16;15.60;99.90
12039;DHT22;6080;48.818;9.526;2022-10-15T07:44:42;15.70;99.90
12039;DHT22;6080;48.818;9.526;2022-10-15T07:47:07;15.70;99.90
12039;DHT22;6080;48.818;9.526;2022-10-15T07:49:33;15.70;99.90
12039;DHT22;6080;48.818;9.526;2022-10-15T07:51:59;15.80;99.90
12039;DHT22;6080;48.818;9.526;2022-10-15T07:54:25;15.80;99.90
12039;DHT22;6080;48.818;9.526;2022-10-15T07:56:50;15.90;99.90
12039;DHT22;6080;48.818;9.526;2022-10-15T07:59:16;16.00;99.90
12039;DHT22;6080;48.818;9.526;2022-10-15T08:01:42;16.10;99.90
12039;DHT22;6080;48.818;9.526;2022-10-15T08:04:07;16.30;99.90
12039;DHT22;6080;48.818;9.526;2022-10-15T08:06:33;16.40;99.90
12039;DHT22;6080;48.818;9.526;2022-10-15T08:08:59;16.60;99.90
12039;DHT22;6080;48.818;9.526;2022-10-15T08:11:25;16.70;99.90
12039;DHT22;6080;48.818;9.526;2022-10-15T08:13:52;16.90;99.90
12039;DHT22;6080;48.818;9.526;2022-10-15T08:16:17;17.00;99.90
12039;DHT22;6080;48.818;9.526;2022-10-15T08:18:44;17.00;99.90
12039;DHT22;6080;48.818;9.526;2022-10-15T08:21:11;17.00;99.90
12039;DHT22;6080;48.818;9.526;2022-10-15T08:23:36;17.00;99.90
12039;DHT22;6080;48.818;9.526;2022-10-15T08:26:03;16.90;99.90
12039;DHT22;6080;48.818;9.526;2022-10-15T08:28:30;16.90;99.90
12039;DHT22;6080;48.818;9.526;2022-10-15T08:30:57;16.90;99.90
12039;DHT22;6080;48.818;9.526;2022-10-15T08:33:23;16.80;99.90
12039;DHT22;6080;48.818;9.526;2022-10-15T08:35:49;16.80;99.90
12039;DHT22;6080;48.818;9.526;2022-10-15T08:38:15;16.80;99.90
12039;DHT22;6080;48.818;9.526;2022-10-15T08:40:46;16.70;99.90
12039;DHT22;6080;48.818;9.526;2022-10-15T08:46:11;16.60;99.90
12039;DHT22;6080;48.818;9.526;2022-10-15T08:48:49;16.50;99.90
12039;DHT22;6080;48.818;9.526;2022-10-15T08:51:44;16.50;99.90
12039;DHT22;6080;48.818;9.526;2022-10-15T08:54:17;16.40;99.90
12039;DHT22;6080;48.818;9.526;2022-10-15T08:56:47;16.40;99.90
12039;DHT22;6080;48.818;9.526;2022-10-15T08:59:34;16.40;99.90
12039;DHT22;6080;48.818;9.526;2022-10-15T09:02:14;16.50;99.90
12039;DHT22;6080;48.818;9.526;2022-10-15T09:04:52;16.50;99.90
12039;DHT22;6080;48.818;9.526;2022-10-15T09:07:59;16.60;99.90
12039;DHT22;6080;48.818;9.526;2022-10-15T09:15:43;16.90;99.90
12039;DHT22;6080;48.818;9.526;2022-10-15T09:18:17;16.80;99.90
12039;DHT22;6080;48.818;9.526;2022-10-15T09:20:45;16.70;99.90
12039;DHT22;6080;48.818;9.526;2022-10-15T09:23:16;16.70;99.90
12039;DHT22;6080;48.818;9.526;2022-10-15T09:25:46;16.60;99.90
12039;DHT22;6080;48.818;9.526;2022-10-15T09:28:16;16.50;99.90
12039;DHT22;6080;48.818;9.526;2022-10-15T09:30:52;16.50;99.90
12039;DHT22;6080;48.818;9.526;2022-10-15T09:41:53;16.90;99.90
12039;DHT22;6080;48.818;9.526;2022-10-15T09:44:30;17.00;99.90
12039;DHT22;6080;48.818;9.526;2022-10-15T09:46:57;17.20;99.90
12039;DHT22;6080;48.818;9.526;2022-10-15T09:49:25;17.30;99.90
12039;DHT22;6080;48.818;9.526;2022-10-15T09:52:18;17.40;99.90
12039;DHT22;6080;48.818;9.526;2022-10-15T09:55:06;17.60;99.90
12039;DHT22;6080;48.818;9.526;2022-10-15T09:57:36;17.70;99.90
12039;DHT22;6080;48.818;9.526;2022-10-15T10:00:12;17.80;99.90
12039;DHT22;6080;48.818;9.526;2022-10-15T10:02:39;18.00;99.90
12039;DHT22;6080;48.818;9.526;2022-10-15T10:05:26;18.00;99.90
12039;DHT22;6080;48.818;9.526;2022-10-15T10:08:17;17.90;99.90
12039;DHT22;6080;48.818;9.526;2022-10-15T10:10:54;18.00;99.90
12039;DHT22;6080;48.818;9.526;2022-10-15T10:13:29;18.00;99.90
12039;DHT22;6080;48.818;9.526;2022-10-15T10:16:05;17.90;99.90
12039;DHT22;6080;48.818;9.526;2022-10-15T10:18:31;17.90;99.90
12039;DHT22;6080;48.818;9.526;2022-10-15T10:21:00;17.90;99.90
12039;DHT22;6080;48.818;9.526;2022-10-15T10:23:34;17.90;99.90
12039;DHT22;6080;48.818;9.526;2022-10-15T10:26:02;17.90;99.90
12039;DHT22;6080;48.818;9.526;2022-10-15T10:28:43;17.90;99.90
12039;DHT22;6080;48.818;9.526;2022-10-15T10:31:11;17.90;99.90
12039;DHT22;6080;48.818;9.526;2022-10-15T10:33:49;17.90;99.90
12039;DHT22;6080;48.818;9.526;2022-10-15T10:36:31;17.90;99.90
12039;DHT22;6080;48.818;9.526;2022-10-15T10:39:24;17.90;99.90
12039;DHT22;6080;48.818;9.526;2022-10-15T10:42:03;17.90;99.90
12039;DHT22;6080;48.818;9.526;2022-10-15T10:44:35;18.00;99.90
12039;DHT22;6080;48.818;9.526;2022-10-15T10:49:45;18.30;99.90
12039;DHT22;6080;48.818;9.526;2022-10-15T10:52:24;18.50;99.90
12039;DHT22;6080;48.818;9.526;2022-10-15T10:55:17;18.70;99.90
12039;DHT22;6080;48.818;9.526;2022-10-15T10:57:54;18.90;99.90
12039;DHT22;6080;48.818;9.526;2022-10-15T11:02:51;19.20;99.90
12039;DHT22;6080;48.818;9.526;2022-10-15T11:05:28;19.20;99.90
12039;DHT22;6080;48.818;9.526;2022-10-15T11:16:20;18.80;99.90
12039;DHT22;6080;48.818;9.526;2022-10-15T11:19:11;18.80;99.90
12039;DHT22;6080;48.818;9.526;2022-10-15T11:38:43;20.20;99.90
12039;DHT22;6080;48.818;9.526;2022-10-15T11:54:30;21.50;99.90
12039;DHT22;6080;48.818;9.526;2022-10-15T11:56:57;22.00;99.90
12039;DHT22;6080;48.818;9.526;2022-10-15T11:59:39;22.40;99.90
12039;DHT22;6080;48.818;9.526;2022-10-15T12:07:46;21.60;99.90
12039;DHT22;6080;48.818;9.526;2022-10-15T12:12:58;21.40;99.90
12039;DHT22;6080;48.818;9.526;2022-10-15T12:15:45;21.40;99.90
12039;DHT22;6080;48.818;9.526;2022-10-15T12:18:39;21.40;99.90
12039;DHT22;6080;48.818;9.526;2022-10-15T12:21:31;21.10;99.90
12039;DHT22;6080;48.818;9.526;2022-10-15T12:23:58;20.80;99.90
12039;DHT22;6080;48.818;9.526;2022-10-15T12:26:31;20.90;99.90
12039;DHT22;6080;48.818;9.526;2022-10-15T12:29:03;22.20;99.90
12039;DHT22;6080;48.818;9.526;2022-10-15T12:31:50;23.00;99.90
12039;DHT22;6080;48.818;9.526;2022-10-15T12:34:27;23.50;99.90
12039;DHT22;6080;48.818;9.526;2022-10-15T12:37:02;23.40;99.90
12039;DHT22;6080;48.818;9.526;2022-10-15T12:39:29;23.10;99.90
12039;DHT22;6080;48.818;9.526;2022-10-15T12:41:55;23.80;99.90
12039;DHT22;6080;48.818;9.526;2022-10-15T12:44:25;23.50;99.90
12039;DHT22;6080;48.818;9.526;2022-10-15T12:46:52;23.10;99.90
12039;DHT22;6080;48.818;9.526;2022-10-15T12:52:00;22.20;99.90
12039;DHT22;6080;48.818;9.526;2022-10-15T12:54:45;22.10;99.90
12039;DHT22;6080;48.818;9.526;2022-10-15T12:59:57;21.90;99.90
12039;DHT22;6080;48.818;9.526;2022-10-15T13:05:02;21.30;99.90
12039;DHT22;6080;48.818;9.526;2022-10-15T13:07:27;21.20;99.90
12039;DHT22;6080;48.818;9.526;2022-10-15T13:09:53;20.90;99.90
12039;DHT22;6080;48.818;9.526;2022-10-15T13:12:23;20.90;99.90
12039;DHT22;6080;48.818;9.526;2022-10-15T13:14:56;20.80;99.90
12039;DHT22;6080;48.818;9.526;2022-10-15T13:17:23;20.90;99.90
12039;DHT22;6080;48.818;9.526;2022-10-15T13:20:00;20.90;99.90
12039;DHT22;6080;48.818;9.526;2022-10-15T13:22:31;20.90;99.90
12039;DHT22;6080;48.818;9.526;2022-10-15T13:24:57;20.80;99.90
12039;DHT22;6080;48.818;9.526;2022-10-15T13:29:57;19.90;99.90
12039;DHT22;6080;48.818;9.526;2022-10-15T13:32:25;19.30;99.90
12039;DHT22;6080;48.818;9.526;2022-10-15T13:34:51;18.70;99.90
12039;DHT22;6080;48.818;9.526;2022-10-15T13:37:22;18.20;99.90
12039;DHT22;6080;48.818;9.526;2022-10-15T13:39:50;17.80;99.90
12039;DHT22;6080;48.818;9.526;2022-10-15T13:42:21;17.60;99.90
12039;DHT22;6080;48.818;9.526;2022-10-15T13:47:41;17.30;99.90
12039;DHT22;6080;48.818;9.526;2022-10-15T13:52:40;17.20;99.90
12039;DHT22;6080;48.818;9.526;2022-10-15T13:55:31;17.20;99.90
12039;DHT22;6080;48.818;9.526;2022-10-15T14:00:56;17.10;99.90
12039;DHT22;6080;48.818;9.526;2022-10-15T14:03:30;17.10;99.90
12039;DHT22;6080;48.818;9.526;2022-10-15T14:06:16;17.10;99.90
12039;DHT22;6080;48.818;9.526;2022-10-15T14:08:49;17.10;99.90
12039;DHT22;6080;48.818;9.526;2022-10-15T14:11:15;17.10;99.90
12039;DHT22;6080;48.818;9.526;2022-10-15T14:13:47;17.20;99.90
12039;DHT22;6080;48.818;9.526;2022-10-15T14:16:43;17.20;99.90
12039;DHT22;6080;48.818;9.526;2022-10-15T14:19:16;17.20;99.90
12039;DHT22;6080;48.818;9.526;2022-10-15T14:21:44;17.20;99.90
12039;DHT22;6080;48.818;9.526;2022-10-15T14:24:22;17.20;99.90
12039;DHT22;6080;48.818;9.526;2022-10-15T14:26:49;17.20;99.90
12039;DHT22;6080;48.818;9.526;2022-10-15T14:31:48;17.20;99.90
12039;DHT22;6080;48.818;9.526;2022-10-15T14:34:29;17.20;99.90
12039;DHT22;6080;48.818;9.526;2022-10-15T14:36:56;17.20;99.90
12039;DHT22;6080;48.818;9.526;2022-10-15T14:39:31;17.20;99.90
12039;DHT22;6080;48.818;9.526;2022-10-15T14:42:02;17.10;99.90
12039;DHT22;6080;48.818;9.526;2022-10-15T14:44:49;17.10;99.90
12039;DHT22;6080;48.818;9.526;2022-10-15T14:47:24;17.20;99.90
12039;DHT22;6080;48.818;9.526;2022-10-15T14:49:56;17.20;99.90
12039;DHT22;6080;48.818;9.526;2022-10-15T14:52:24;17.20;99.90
12039;DHT22;6080;48.818;9.526;2022-10-15T14:57:33;17.20;99.90
12039;DHT22;6080;48.818;9.526;2022-10-15T15:00:00;17.20;99.90
12039;DHT22;6080;48.818;9.526;2022-10-15T15:02:27;17.10;99.90
12039;DHT22;6080;48.818;9.526;2022-10-15T15:07:39;16.90;99.90
12039;DHT22;6080;48.818;9.526;2022-10-15T15:10:10;16.90;99.90
12039;DHT22;6080;48.818;9.526;2022-10-15T15:12:38;16.90;99.90
12039;DHT22;6080;48.818;9.526;2022-10-15T15:15:12;16.90;99.90
12039;DHT22;6080;48.818;9.526;2022-10-15T15:17:38;16.90;99.90
12039;DHT22;6080;48.818;9.526;2022-10-15T15:20:04;17.00;99.90
12039;DHT22;6080;48.818;9.526;2022-10-15T15:22:32;17.00;99.90
12039;DHT22;6080;48.818;9.526;2022-10-15T15:24:59;17.00;99.90
12039;DHT22;6080;48.818;9.526;2022-10-15T15:27:30;17.00;99.90
12039;DHT22;6080;48.818;9.526;2022-10-15T15:30:03;17.10;99.90
12039;DHT22;6080;48.818;9.526;2022-10-15T15:32:29;17.00;99.90
12039;DHT22;6080;48.818;9.526;2022-10-15T15:34:56;17.00;99.90
12039;DHT22;6080;48.818;9.526;2022-10-15T15:37:23;17.00;99.90
12039;DHT22;6080;48.818;9.526;2022-10-15T15:39:50;16.90;99.90
12039;DHT22;6080;48.818;9.526;2022-10-15T15:42:21;16.90;99.90
12039;DHT22;6080;48.818;9.526;2022-10-15T15:44:47;16.90;99.90
12039;DHT22;6080;48.818;9.526;2022-10-15T15:47:13;16.80;99.90
12039;DHT22;6080;48.818;9.526;2022-10-15T15:49:40;16.80;99.90
12039;DHT22;6080;48.818;9.526;2022-10-15T15:52:09;16.80;99.90
12039;DHT22;6080;48.818;9.526;2022-10-15T15:54:39;16.80;99.90
12039;DHT22;6080;48.818;9.526;2022-10-15T15:57:05;16.80;99.90
12039;DHT22;6080;48.818;9.526;2022-10-15T15:59:31;16.80;99.90
12039;DHT22;6080;48.818;9.526;2022-10-15T16:01:56;16.90;99.90
12039;DHT22;6080;48.818;9.526;2022-10-15T16:04:22;16.80;99.90
12039;DHT22;6080;48.818;9.526;2022-10-15T16:06:48;16.80;99.90
12039;DHT22;6080;48.818;9.526;2022-10-15T16:09:18;16.80;99.90
12039;DHT22;6080;48.818;9.526;2022-10-15T16:11:45;16.80;99.90
12039;DHT22;6080;48.818;9.526;2022-10-15T16:14:11;16.80;99.90
12039;DHT22;6080;48.818;9.526;2022-10-15T16:16:37;16.80;99.90
12039;DHT22;6080;48.818;9.526;2022-10-15T16:19:03;16.60;99.90
12039;DHT22;6080;48.818;9.526;2022-10-15T16:21:29;16.60;99.90
12039;DHT22;6080;48.818;9.526;2022-10-15T16:23:55;16.60;99.90
12039;DHT22;6080;48.818;9.526;2022-10-15T16:26:21;16.50;99.90
12039;DHT22;6080;48.818;9.526;2022-10-15T16:28:47;16.50;99.90
12039;DHT22;6080;48.818;9.526;2022-10-15T16:31:15;16.50;99.90
12039;DHT22;6080;48.818;9.526;2022-10-15T16:33:41;16.50;99.90
12039;DHT22;6080;48.818;9.526;2022-10-15T16:36:07;16.40;99.90
12039;DHT22;6080;48.818;9.526;2022-10-15T16:38:33;16.40;99.90
12039;DHT22;6080;48.818;9.526;2022-10-15T16:40:58;16.40;99.90
12039;DHT22;6080;48.818;9.526;2022-10-15T16:43:25;16.40;99.90
12039;DHT22;6080;48.818;9.526;2022-10-15T16:45:57;16.40;99.90
12039;DHT22;6080;48.818;9.526;2022-10-15T16:48:23;16.30;99.90
12039;DHT22;6080;48.818;9.526;2022-10-15T16:51:14;16.30;99.90
12039;DHT22;6080;48.818;9.526;2022-10-15T16:53:41;16.30;99.90
12039;DHT22;6080;48.818;9.526;2022-10-15T16:58:33;16.20;99.90
12039;DHT22;6080;48.818;9.526;2022-10-15T17:01:04;16.20;99.90
12039;DHT22;6080;48.818;9.526;2022-10-15T17:03:34;16.20;99.90
12039;DHT22;6080;48.818;9.526;2022-10-15T17:06:03;16.10;99.90
12039;DHT22;6080;48.818;9.526;2022-10-15T17:08:44;16.10;99.90
12039;DHT22;6080;48.818;9.526;2022-10-15T17:11:17;16.10;99.90
12039;DHT22;6080;48.818;9.526;2022-10-15T17:13:43;16.10;99.90
12039;DHT22;6080;48.818;9.526;2022-10-15T17:16:23;16.10;99.90
12039;DHT22;6080;48.818;9.526;2022-10-15T17:18:49;16.10;99.90
12039;DHT22;6080;48.818;9.526;2022-10-15T17:21:22;16.10;99.90
12039;DHT22;6080;48.818;9.526;2022-10-15T17:23:50;16.10;99.90
12039;DHT22;6080;48.818;9.526;2022-10-15T17:26:19;16.10;99.90
12039;DHT22;6080;48.818;9.526;2022-10-15T17:28:46;16.10;99.90
12039;DHT22;6080;48.818;9.526;2022-10-15T17:31:14;16.10;99.90
12039;DHT22;6080;48.818;9.526;2022-10-15T17:33:42;16.10;99.90
12039;DHT22;6080;48.818;9.526;2022-10-15T17:36:11;16.10;99.90
12039;DHT22;6080;48.818;9.526;2022-10-15T17:38:37;16.10;99.90
12039;DHT22;6080;48.818;9.526;2022-10-15T17:41:15;16.10;99.90
12039;DHT22;6080;48.818;9.526;2022-10-15T17:43:42;16.10;99.90
12039;DHT22;6080;48.818;9.526;2022-10-15T17:46:14;16.10;99.90
12039;DHT22;6080;48.818;9.526;2022-10-15T17:48:40;16.10;99.90
12039;DHT22;6080;48.818;9.526;2022-10-15T17:51:08;16.00;99.90
12039;DHT22;6080;48.818;9.526;2022-10-15T17:53:35;16.00;99.90
12039;DHT22;6080;48.818;9.526;2022-10-15T17:56:14;15.90;99.90
12039;DHT22;6080;48.818;9.526;2022-10-15T17:58:40;15.90;99.90
12039;DHT22;6080;48.818;9.526;2022-10-15T18:01:12;15.90;99.90
12039;DHT22;6080;48.818;9.526;2022-10-15T18:03:38;15.90;99.90